createdAt,value
2022-08-03T00:02:39.438Z,18.28
2022-08-03T00:12:41.053Z,18.34
2022-08-03T00:22:42.610Z,18.15
2022-08-03T00:32:45.096Z,18.14
2022-08-03T00:42:51.794Z,18.17
2022-08-03T00:52:54.169Z,18.13
2022-08-03T01:02:55.834Z,18.23
2022-08-03T01:13:59.224Z,18.13
2022-08-03T01:23:48.603Z,18.19
2022-08-03T01:33:53.036Z,18.11
2022-08-03T01:44:29.460Z,18.16
2022-08-03T01:54:19.895Z,18.14
2022-08-03T02:04:22.783Z,18.28
2022-08-03T02:14:24.710Z,18.25
2022-08-03T02:24:26.442Z,18.30
2022-08-03T02:34:29.856Z,18.20
2022-08-03T02:44:34.844Z,18.26
2022-08-03T02:54:38.311Z,18.27
2022-08-03T03:04:54.975Z,18.30
2022-08-03T03:15:02.150Z,18.44
2022-08-03T03:25:04.626Z,18.45
2022-08-03T03:35:06.897Z,18.35
2022-08-03T03:45:09.021Z,18.40
2022-08-03T03:55:10.807Z,18.37
2022-08-03T04:05:42.880Z,18.56
2022-08-03T04:15:48.116Z,18.77
2022-08-03T04:25:51.745Z,18.73
2022-08-03T04:36:01.179Z,18.74
2022-08-03T04:46:04.926Z,18.85
2022-08-03T04:56:07.143Z,19.03
2022-08-03T05:06:11.398Z,19.24
2022-08-03T05:16:15.552Z,19.34
2022-08-03T05:26:17.213Z,19.37
2022-08-03T05:36:18.885Z,19.56
2022-08-03T05:56:27.353Z,19.80
2022-08-03T06:06:32.288Z,19.82
2022-08-03T06:16:34.294Z,19.68
2022-08-03T06:26:36.023Z,19.87
2022-08-03T06:36:37.751Z,19.94
2022-08-03T06:46:39.847Z,20.44
2022-08-03T06:56:41.421Z,21.40
2022-08-03T07:06:43.044Z,22.44
2022-08-03T07:16:44.626Z,23.75
2022-08-03T07:26:46.329Z,23.78
2022-08-03T07:36:49.867Z,23.92
2022-08-03T07:46:51.478Z,25.06
2022-08-03T07:56:53.521Z,24.41
2022-08-03T08:06:55.093Z,24.41
2022-08-03T08:16:56.882Z,24.54
2022-08-03T08:26:58.588Z,25.79
2022-08-03T08:37:00.508Z,25.98
2022-08-03T08:47:04.274Z,25.18
2022-08-03T08:57:16.514Z,27.06
2022-08-03T09:07:29.293Z,28.48
2022-08-03T09:17:40.046Z,28.22
2022-08-03T09:27:42.805Z,29.24
2022-08-03T09:38:12.512Z,30.45
2022-08-03T09:48:22.295Z,29.77
2022-08-03T09:58:24.732Z,29.86
2022-08-03T10:08:26.353Z,29.46
2022-08-03T10:18:28.947Z,30.49
2022-08-03T10:28:45.014Z,31.19
2022-08-03T10:38:52.664Z,28.87
2022-08-03T10:48:56.700Z,27.27
2022-08-03T10:58:58.425Z,29.10
2022-08-03T11:09:11.002Z,29.51
2022-08-03T11:19:13.643Z,29.56
2022-08-03T11:29:32.082Z,27.93
2022-08-03T11:39:40.852Z,26.26
2022-08-03T11:49:42.618Z,28.37
2022-08-03T11:59:44.313Z,30.52
2022-08-03T12:10:05.679Z,30.59
2022-08-03T12:20:08.893Z,28.03
2022-08-03T12:30:10.827Z,28.37
2022-08-03T12:40:20.117Z,31.28
2022-08-03T12:50:33.545Z,31.53
2022-08-03T13:00:35.276Z,30.18
2022-08-03T13:10:36.850Z,27.46
2022-08-03T13:20:38.550Z,26.63
2022-08-03T13:30:40.795Z,26.46
2022-08-03T13:40:42.521Z,26.75
2022-08-03T13:50:44.086Z,27.28
2022-08-03T14:00:45.714Z,27.03
2022-08-03T14:10:47.286Z,26.63
2022-08-03T14:20:54.382Z,26.12
2022-08-03T14:30:58.240Z,26.15
2022-08-03T14:41:00.012Z,25.91
2022-08-03T14:51:01.916Z,26.12
2022-08-03T15:01:04.047Z,26.30
2022-08-03T15:11:25.644Z,24.23
2022-08-03T15:21:46.814Z,22.85
2022-08-03T15:31:48.990Z,22.52
2022-08-03T15:41:50.615Z,22.56
2022-08-03T15:51:52.203Z,22.41
2022-08-03T16:01:56.682Z,21.92
2022-08-03T16:11:58.477Z,21.72
2022-08-03T16:22:00.056Z,21.90
2022-08-03T16:32:09.396Z,22.33
2022-08-03T16:42:11.382Z,22.37
2022-08-03T16:52:13.455Z,22.01
2022-08-03T17:02:26.052Z,21.91
2022-08-03T17:12:28.376Z,21.14
2022-08-03T17:22:33.391Z,20.90
2022-08-03T17:32:42.804Z,20.74
2022-08-03T17:42:54.371Z,20.70
2022-08-03T17:53:07.470Z,20.60
2022-08-03T18:03:20.696Z,20.36
2022-08-03T18:13:30.697Z,20.48
2022-08-03T18:23:36.629Z,20.57
2022-08-03T18:34:16.917Z,20.53
2022-08-03T18:44:08.520Z,20.44
2022-08-03T18:54:51.706Z,20.32
2022-08-03T19:05:02.260Z,20.31
2022-08-03T19:15:10.635Z,20.26
2022-08-03T19:25:14.883Z,20.19
2022-08-03T19:35:18.921Z,20.07
2022-08-03T19:46:04.669Z,19.94
2022-08-03T20:06:04.943Z,19.92
2022-08-03T20:16:06.843Z,19.78
2022-08-03T20:26:11.994Z,19.70
2022-08-03T20:36:15.903Z,19.85
2022-08-03T20:46:32.853Z,19.71
2022-08-03T20:56:40.218Z,19.85
2022-08-03T21:06:57.221Z,19.95
2022-08-03T21:17:03.596Z,20.00
2022-08-03T21:27:06.025Z,20.03
2022-08-03T21:37:07.802Z,20.00
2022-08-03T21:47:11.180Z,19.98
2022-08-03T21:57:23.184Z,19.78
2022-08-03T22:07:26.577Z,19.69
2022-08-03T22:17:56.084Z,19.57
2022-08-03T22:27:52.639Z,19.59
2022-08-03T22:37:55.504Z,19.51
2022-08-03T22:47:57.821Z,19.53
2022-08-03T22:57:59.418Z,19.50
2022-08-03T23:08:03.189Z,19.55
2022-08-03T23:18:06.476Z,19.66
2022-08-03T23:28:13.882Z,19.73
2022-08-03T23:38:22.988Z,19.66
2022-08-03T23:48:25.204Z,19.88
2022-08-03T23:58:32.910Z,19.81
